sensor_id;sensor_type;location;lat;lon;timestamp;P1;durP1;ratioP1;P2;durP2;ratioP2
67132;SDS011;54052;53.542;49.408;2023-02-28T00:00:50;9.40;;;3.10;;
67132;SDS011;54052;53.542;49.408;2023-02-28T00:03:16;4.28;;;3.05;;
67132;SDS011;54052;53.542;49.408;2023-02-28T00:05:42;4.65;;;2.97;;
67132;SDS011;54052;53.542;49.408;2023-02-28T00:08:09;5.05;;;3.03;;
67132;SDS011;54052;53.542;49.408;2023-02-28T00:10:35;5.25;;;3.13;;
67132;SDS011;54052;53.542;49.408;2023-02-28T00:13:05;4.95;;;3.40;;
67132;SDS011;54052;53.542;49.408;2023-02-28T00:15:31;5.20;;;4.38;;
67132;SDS011;54052;53.542;49.408;2023-02-28T00:17:58;7.65;;;3.20;;
67132;SDS011;54052;53.542;49.408;2023-02-28T00:20:24;4.30;;;2.97;;
67132;SDS011;54052;53.542;49.408;2023-02-28T00:22:51;3.25;;;2.75;;
67132;SDS011;54052;53.542;49.408;2023-02-28T00:25:20;4.70;;;2.15;;
67132;SDS011;54052;53.542;49.408;2023-02-28T00:27:48;3.47;;;2.25;;
67132;SDS011;54052;53.542;49.408;2023-02-28T00:30:16;3.20;;;2.60;;
67132;SDS011;54052;53.542;49.408;2023-02-28T00:32:47;2.97;;;2.67;;
67132;SDS011;54052;53.542;49.408;2023-02-28T00:35:13;2.78;;;2.50;;
67132;SDS011;54052;53.542;49.408;2023-02-28T00:37:40;5.22;;;2.97;;
67132;SDS011;54052;53.542;49.408;2023-02-28T00:40:07;2.80;;;2.30;;
67132;SDS011;54052;53.542;49.408;2023-02-28T00:42:37;3.28;;;2.65;;
67132;SDS011;54052;53.542;49.408;2023-02-28T00:45:03;3.75;;;2.28;;
67132;SDS011;54052;53.542;49.408;2023-02-28T00:47:30;3.83;;;2.55;;
67132;SDS011;54052;53.542;49.408;2023-02-28T00:49:57;2.42;;;2.22;;
67132;SDS011;54052;53.542;49.408;2023-02-28T00:52:23;5.35;;;1.92;;
67132;SDS011;54052;53.542;49.408;2023-02-28T00:54:51;3.47;;;2.55;;
67132;SDS011;54052;53.542;49.408;2023-02-28T00:57:17;4.18;;;2.00;;
67132;SDS011;54052;53.542;49.408;2023-02-28T00:59:43;2.95;;;2.25;;
67132;SDS011;54052;53.542;49.408;2023-02-28T01:02:09;4.05;;;2.22;;
67132;SDS011;54052;53.542;49.408;2023-02-28T01:04:35;2.00;;;1.83;;
67132;SDS011;54052;53.542;49.408;2023-02-28T01:07:01;2.85;;;2.08;;
67132;SDS011;54052;53.542;49.408;2023-02-28T01:09:27;2.83;;;2.28;;
67132;SDS011;54052;53.542;49.408;2023-02-28T01:11:53;2.35;;;2.15;;
67132;SDS011;54052;53.542;49.408;2023-02-28T01:14:19;3.55;;;1.90;;
67132;SDS011;54052;53.542;49.408;2023-02-28T01:16:45;2.28;;;2.08;;
67132;SDS011;54052;53.542;49.408;2023-02-28T01:19:11;3.30;;;2.22;;
67132;SDS011;54052;53.542;49.408;2023-02-28T01:21:38;1.75;;;1.65;;
67132;SDS011;54052;53.542;49.408;2023-02-28T01:24:04;2.78;;;2.35;;
67132;SDS011;54052;53.542;49.408;2023-02-28T01:26:31;5.20;;;2.08;;
67132;SDS011;54052;53.542;49.408;2023-02-28T01:28:57;2.20;;;2.00;;
67132;SDS011;54052;53.542;49.408;2023-02-28T01:31:23;2.50;;;2.20;;
67132;SDS011;54052;53.542;49.408;2023-02-28T01:33:50;2.80;;;2.20;;
67132;SDS011;54052;53.542;49.408;2023-02-28T01:36:17;4.95;;;2.53;;
67132;SDS011;54052;53.542;49.408;2023-02-28T01:38:45;3.67;;;2.55;;
67132;SDS011;54052;53.542;49.408;2023-02-28T01:41:17;2.80;;;1.92;;
67132;SDS011;54052;53.542;49.408;2023-02-28T01:43:55;2.42;;;2.22;;
67132;SDS011;54052;53.542;49.408;2023-02-28T01:46:22;2.33;;;2.08;;
67132;SDS011;54052;53.542;49.408;2023-02-28T01:48:50;3.20;;;2.40;;
67132;SDS011;54052;53.542;49.408;2023-02-28T01:51:22;2.50;;;1.80;;
67132;SDS011;54052;53.542;49.408;2023-02-28T01:53:59;3.65;;;2.22;;
67132;SDS011;54052;53.542;49.408;2023-02-28T01:56:32;2.88;;;1.85;;
67132;SDS011;54052;53.542;49.408;2023-02-28T01:59:00;5.47;;;2.03;;
67132;SDS011;54052;53.542;49.408;2023-02-28T02:01:27;2.10;;;1.67;;
67132;SDS011;54052;53.542;49.408;2023-02-28T02:03:55;2.40;;;1.80;;
67132;SDS011;54052;53.542;49.408;2023-02-28T02:06:45;2.90;;;2.03;;
67132;SDS011;54052;53.542;49.408;2023-02-28T02:09:11;2.70;;;1.92;;
67132;SDS011;54052;53.542;49.408;2023-02-28T02:11:39;3.67;;;2.28;;
67132;SDS011;54052;53.542;49.408;2023-02-28T02:14:14;4.30;;;2.08;;
67132;SDS011;54052;53.542;49.408;2023-02-28T02:24:54;5.82;;;2.55;;
67132;SDS011;54052;53.542;49.408;2023-02-28T02:36:19;3.15;;;2.08;;
67132;SDS011;54052;53.542;49.408;2023-02-28T02:39:13;2.42;;;2.03;;
67132;SDS011;54052;53.542;49.408;2023-02-28T02:44:40;3.78;;;1.63;;
67132;SDS011;54052;53.542;49.408;2023-02-28T02:47:12;2.95;;;2.40;;
67132;SDS011;54052;53.542;49.408;2023-02-28T02:49:44;3.38;;;2.30;;
67132;SDS011;54052;53.542;49.408;2023-02-28T02:52:16;4.65;;;2.42;;
67132;SDS011;54052;53.542;49.408;2023-02-28T02:54:46;6.15;;;2.67;;
67132;SDS011;54052;53.542;49.408;2023-02-28T02:57:29;4.25;;;3.00;;
67132;SDS011;54052;53.542;49.408;2023-02-28T03:00:10;3.55;;;2.65;;
67132;SDS011;54052;53.542;49.408;2023-02-28T03:02:39;3.88;;;2.30;;
67132;SDS011;54052;53.542;49.408;2023-02-28T03:05:08;2.15;;;1.95;;
67132;SDS011;54052;53.542;49.408;2023-02-28T03:07:41;3.88;;;2.22;;
67132;SDS011;54052;53.542;49.408;2023-02-28T03:12:58;4.47;;;2.50;;
67132;SDS011;54052;53.542;49.408;2023-02-28T03:18:29;4.20;;;3.08;;
67132;SDS011;54052;53.542;49.408;2023-02-28T03:21:14;4.80;;;3.20;;
67132;SDS011;54052;53.542;49.408;2023-02-28T03:26:58;7.78;;;3.70;;
67132;SDS011;54052;53.542;49.408;2023-02-28T03:32:09;6.13;;;4.20;;
67132;SDS011;54052;53.542;49.408;2023-02-28T03:34:52;5.55;;;4.00;;
67132;SDS011;54052;53.542;49.408;2023-02-28T03:37:24;4.95;;;3.17;;
67132;SDS011;54052;53.542;49.408;2023-02-28T03:40:03;5.50;;;2.95;;
67132;SDS011;54052;53.542;49.408;2023-02-28T03:45:09;3.47;;;3.03;;
67132;SDS011;54052;53.542;49.408;2023-02-28T03:47:57;3.97;;;2.83;;
67132;SDS011;54052;53.542;49.408;2023-02-28T03:50:25;5.93;;;3.47;;
67132;SDS011;54052;53.542;49.408;2023-02-28T03:55:55;3.45;;;2.75;;
67132;SDS011;54052;53.542;49.408;2023-02-28T04:01:42;5.18;;;3.17;;
67132;SDS011;54052;53.542;49.408;2023-02-28T04:04:10;3.38;;;2.97;;
67132;SDS011;54052;53.542;49.408;2023-02-28T04:06:38;4.22;;;3.47;;
67132;SDS011;54052;53.542;49.408;2023-02-28T04:09:05;8.00;;;3.78;;
67132;SDS011;54052;53.542;49.408;2023-02-28T04:11:34;3.78;;;3.35;;
67132;SDS011;54052;53.542;49.408;2023-02-28T04:14:06;4.63;;;3.53;;
67132;SDS011;54052;53.542;49.408;2023-02-28T04:16:33;3.70;;;3.40;;
67132;SDS011;54052;53.542;49.408;2023-02-28T04:19:05;7.65;;;2.88;;
67132;SDS011;54052;53.542;49.408;2023-02-28T04:21:40;5.53;;;3.15;;
67132;SDS011;54052;53.542;49.408;2023-02-28T04:24:09;4.30;;;3.35;;
67132;SDS011;54052;53.542;49.408;2023-02-28T04:26:40;4.28;;;3.70;;
67132;SDS011;54052;53.542;49.408;2023-02-28T04:29:09;3.80;;;3.38;;
67132;SDS011;54052;53.542;49.408;2023-02-28T04:31:36;6.43;;;3.85;;
67132;SDS011;54052;53.542;49.408;2023-02-28T04:34:03;4.63;;;3.17;;
67132;SDS011;54052;53.542;49.408;2023-02-28T04:36:29;6.40;;;3.75;;
67132;SDS011;54052;53.542;49.408;2023-02-28T04:38:55;3.88;;;3.13;;
67132;SDS011;54052;53.542;49.408;2023-02-28T04:41:21;2.78;;;2.45;;
67132;SDS011;54052;53.542;49.408;2023-02-28T04:43:48;3.15;;;2.50;;
67132;SDS011;54052;53.542;49.408;2023-02-28T04:46:14;5.90;;;2.60;;
67132;SDS011;54052;53.542;49.408;2023-02-28T04:48:40;2.50;;;2.30;;
67132;SDS011;54052;53.542;49.408;2023-02-28T04:51:08;2.33;;;2.10;;
67132;SDS011;54052;53.542;49.408;2023-02-28T04:53:36;2.65;;;2.28;;
67132;SDS011;54052;53.542;49.408;2023-02-28T04:56:04;2.97;;;2.17;;
67132;SDS011;54052;53.542;49.408;2023-02-28T04:58:31;2.42;;;2.15;;
67132;SDS011;54052;53.542;49.408;2023-02-28T05:01:04;1.67;;;1.10;;
67132;SDS011;54052;53.542;49.408;2023-02-28T05:03:42;2.30;;;1.42;;
67132;SDS011;54052;53.542;49.408;2023-02-28T05:06:09;1.95;;;1.00;;
67132;SDS011;54052;53.542;49.408;2023-02-28T05:08:37;2.55;;;1.42;;
67132;SDS011;54052;53.542;49.408;2023-02-28T05:11:04;2.70;;;1.30;;
67132;SDS011;54052;53.542;49.408;2023-02-28T05:13:31;4.45;;;1.75;;
67132;SDS011;54052;53.542;49.408;2023-02-28T05:15:57;4.53;;;1.48;;
67132;SDS011;54052;53.542;49.408;2023-02-28T05:18:23;2.50;;;1.48;;
67132;SDS011;54052;53.542;49.408;2023-02-28T05:20:49;1.67;;;1.13;;
67132;SDS011;54052;53.542;49.408;2023-02-28T05:23:15;4.55;;;1.23;;
67132;SDS011;54052;53.542;49.408;2023-02-28T05:25:43;2.30;;;0.95;;
67132;SDS011;54052;53.542;49.408;2023-02-28T05:28:09;2.28;;;1.08;;
67132;SDS011;54052;53.542;49.408;2023-02-28T05:30:35;2.97;;;1.27;;
67132;SDS011;54052;53.542;49.408;2023-02-28T05:33:01;2.58;;;1.20;;
67132;SDS011;54052;53.542;49.408;2023-02-28T05:35:27;4.57;;;2.80;;
67132;SDS011;54052;53.542;49.408;2023-02-28T05:37:53;2.92;;;1.60;;
67132;SDS011;54052;53.542;49.408;2023-02-28T05:40:19;2.28;;;1.38;;
67132;SDS011;54052;53.542;49.408;2023-02-28T05:42:45;1.90;;;1.10;;
67132;SDS011;54052;53.542;49.408;2023-02-28T05:45:12;2.80;;;1.17;;
67132;SDS011;54052;53.542;49.408;2023-02-28T05:47:42;2.05;;;1.25;;
67132;SDS011;54052;53.542;49.408;2023-02-28T05:50:08;3.67;;;1.33;;
67132;SDS011;54052;53.542;49.408;2023-02-28T05:52:36;1.58;;;1.00;;
67132;SDS011;54052;53.542;49.408;2023-02-28T05:55:03;1.67;;;1.20;;
67132;SDS011;54052;53.542;49.408;2023-02-28T05:57:29;4.22;;;1.60;;
67132;SDS011;54052;53.542;49.408;2023-02-28T05:59:55;1.88;;;1.13;;
67132;SDS011;54052;53.542;49.408;2023-02-28T06:02:21;3.92;;;1.30;;
67132;SDS011;54052;53.542;49.408;2023-02-28T06:04:47;4.50;;;1.30;;
67132;SDS011;54052;53.542;49.408;2023-02-28T06:07:13;2.30;;;1.30;;
67132;SDS011;54052;53.542;49.408;2023-02-28T06:09:40;2.38;;;1.40;;
67132;SDS011;54052;53.542;49.408;2023-02-28T06:12:06;2.65;;;1.50;;
67132;SDS011;54052;53.542;49.408;2023-02-28T06:14:35;2.42;;;1.52;;
67132;SDS011;54052;53.542;49.408;2023-02-28T06:17:01;5.85;;;1.25;;
67132;SDS011;54052;53.542;49.408;2023-02-28T06:19:28;1.75;;;1.25;;
67132;SDS011;54052;53.542;49.408;2023-02-28T06:21:55;2.72;;;1.35;;
67132;SDS011;54052;53.542;49.408;2023-02-28T06:24:23;2.22;;;1.60;;
67132;SDS011;54052;53.542;49.408;2023-02-28T06:26:50;3.75;;;1.30;;
67132;SDS011;54052;53.542;49.408;2023-02-28T06:29:16;2.15;;;1.17;;
67132;SDS011;54052;53.542;49.408;2023-02-28T06:31:47;1.85;;;1.13;;
67132;SDS011;54052;53.542;49.408;2023-02-28T06:34:13;2.00;;;1.60;;
67132;SDS011;54052;53.542;49.408;2023-02-28T06:36:40;1.67;;;1.08;;
67132;SDS011;54052;53.542;49.408;2023-02-28T06:39:07;2.65;;;1.20;;
67132;SDS011;54052;53.542;49.408;2023-02-28T06:41:34;2.55;;;1.00;;
67132;SDS011;54052;53.542;49.408;2023-02-28T06:44:13;1.88;;;1.13;;
67132;SDS011;54052;53.542;49.408;2023-02-28T06:46:42;2.05;;;1.20;;
67132;SDS011;54052;53.542;49.408;2023-02-28T06:49:09;2.13;;;1.42;;
67132;SDS011;54052;53.542;49.408;2023-02-28T06:51:39;4.47;;;1.48;;
67132;SDS011;54052;53.542;49.408;2023-02-28T06:54:07;1.48;;;1.02;;
67132;SDS011;54052;53.542;49.408;2023-02-28T06:56:36;2.00;;;1.50;;
67132;SDS011;54052;53.542;49.408;2023-02-28T06:59:03;2.45;;;1.92;;
67132;SDS011;54052;53.542;49.408;2023-02-28T07:01:30;4.45;;;2.05;;
67132;SDS011;54052;53.542;49.408;2023-02-28T07:03:58;2.35;;;1.98;;
67132;SDS011;54052;53.542;49.408;2023-02-28T07:06:25;2.72;;;1.77;;
67132;SDS011;54052;53.542;49.408;2023-02-28T07:08:52;4.22;;;2.28;;
67132;SDS011;54052;53.542;49.408;2023-02-28T07:11:19;2.78;;;2.20;;
67132;SDS011;54052;53.542;49.408;2023-02-28T07:13:48;6.30;;;2.75;;
67132;SDS011;54052;53.542;49.408;2023-02-28T07:16:16;2.03;;;1.85;;
67132;SDS011;54052;53.542;49.408;2023-02-28T07:18:42;2.85;;;2.03;;
67132;SDS011;54052;53.542;49.408;2023-02-28T07:21:09;4.68;;;2.45;;
67132;SDS011;54052;53.542;49.408;2023-02-28T07:23:36;3.03;;;1.98;;
67132;SDS011;54052;53.542;49.408;2023-02-28T07:26:04;2.00;;;1.67;;
67132;SDS011;54052;53.542;49.408;2023-02-28T07:28:30;3.08;;;1.70;;
67132;SDS011;54052;53.542;49.408;2023-02-28T07:30:56;2.78;;;1.88;;
67132;SDS011;54052;53.542;49.408;2023-02-28T07:33:27;8.43;;;1.90;;
67132;SDS011;54052;53.542;49.408;2023-02-28T07:35:59;3.58;;;2.00;;
67132;SDS011;54052;53.542;49.408;2023-02-28T07:38:26;2.42;;;1.95;;
67132;SDS011;54052;53.542;49.408;2023-02-28T07:40:52;4.40;;;2.67;;
67132;SDS011;54052;53.542;49.408;2023-02-28T07:43:18;2.40;;;2.15;;
67132;SDS011;54052;53.542;49.408;2023-02-28T07:45:44;2.47;;;1.90;;
67132;SDS011;54052;53.542;49.408;2023-02-28T07:48:10;3.15;;;2.17;;
67132;SDS011;54052;53.542;49.408;2023-02-28T07:50:37;2.55;;;1.88;;
67132;SDS011;54052;53.542;49.408;2023-02-28T07:53:03;1.85;;;1.70;;
67132;SDS011;54052;53.542;49.408;2023-02-28T07:55:29;4.07;;;2.13;;
67132;SDS011;54052;53.542;49.408;2023-02-28T07:57:56;2.70;;;2.13;;
67132;SDS011;54052;53.542;49.408;2023-02-28T08:00:23;4.65;;;2.08;;
67132;SDS011;54052;53.542;49.408;2023-02-28T08:02:49;2.67;;;2.25;;
67132;SDS011;54052;53.542;49.408;2023-02-28T08:05:15;2.13;;;1.92;;
67132;SDS011;54052;53.542;49.408;2023-02-28T08:07:41;2.00;;;1.60;;
67132;SDS011;54052;53.542;49.408;2023-02-28T08:10:08;1.77;;;1.40;;
67132;SDS011;54052;53.542;49.408;2023-02-28T08:12:35;3.28;;;1.98;;
67132;SDS011;54052;53.542;49.408;2023-02-28T08:15:01;2.47;;;2.13;;
67132;SDS011;54052;53.542;49.408;2023-02-28T08:17:28;7.05;;;2.47;;
67132;SDS011;54052;53.542;49.408;2023-02-28T08:19:54;3.88;;;2.10;;
67132;SDS011;54052;53.542;49.408;2023-02-28T08:22:20;2.65;;;2.03;;
67132;SDS011;54052;53.542;49.408;2023-02-28T08:24:46;2.40;;;2.20;;
67132;SDS011;54052;53.542;49.408;2023-02-28T08:27:12;5.50;;;1.70;;
67132;SDS011;54052;53.542;49.408;2023-02-28T08:29:38;5.78;;;2.28;;
67132;SDS011;54052;53.542;49.408;2023-02-28T08:32:05;3.53;;;2.40;;
67132;SDS011;54052;53.542;49.408;2023-02-28T08:34:32;2.30;;;2.10;;
67132;SDS011;54052;53.542;49.408;2023-02-28T08:36:58;2.65;;;2.20;;
67132;SDS011;54052;53.542;49.408;2023-02-28T08:39:24;3.85;;;2.33;;
67132;SDS011;54052;53.542;49.408;2023-02-28T08:41:50;7.60;;;1.73;;
67132;SDS011;54052;53.542;49.408;2023-02-28T08:44:16;5.30;;;2.17;;
67132;SDS011;54052;53.542;49.408;2023-02-28T08:46:42;6.07;;;2.78;;
67132;SDS011;54052;53.542;49.408;2023-02-28T08:49:09;4.13;;;2.03;;
67132;SDS011;54052;53.542;49.408;2023-02-28T08:51:36;3.88;;;1.55;;
67132;SDS011;54052;53.542;49.408;2023-02-28T08:54:03;4.30;;;3.28;;
67132;SDS011;54052;53.542;49.408;2023-02-28T08:56:29;4.53;;;3.58;;
67132;SDS011;54052;53.542;49.408;2023-02-28T08:58:56;3.60;;;2.50;;
67132;SDS011;54052;53.542;49.408;2023-02-28T09:01:23;4.35;;;2.45;;
67132;SDS011;54052;53.542;49.408;2023-02-28T09:03:54;3.38;;;2.17;;
67132;SDS011;54052;53.542;49.408;2023-02-28T09:06:23;3.80;;;2.63;;
67132;SDS011;54052;53.542;49.408;2023-02-28T09:08:50;2.78;;;2.58;;
67132;SDS011;54052;53.542;49.408;2023-02-28T09:11:16;6.57;;;2.70;;
67132;SDS011;54052;53.542;49.408;2023-02-28T09:13:44;7.72;;;2.78;;
67132;SDS011;54052;53.542;49.408;2023-02-28T09:16:12;3.63;;;2.50;;
67132;SDS011;54052;53.542;49.408;2023-02-28T09:18:41;1.77;;;1.25;;
67132;SDS011;54052;53.542;49.408;2023-02-28T09:21:08;6.68;;;1.52;;
67132;SDS011;54052;53.542;49.408;2023-02-28T09:23:40;5.25;;;1.45;;
67132;SDS011;54052;53.542;49.408;2023-02-28T09:26:07;2.60;;;1.52;;
67132;SDS011;54052;53.542;49.408;2023-02-28T09:28:34;1.70;;;1.20;;
67132;SDS011;54052;53.542;49.408;2023-02-28T09:31:00;1.77;;;1.45;;
67132;SDS011;54052;53.542;49.408;2023-02-28T09:33:26;2.15;;;1.65;;
67132;SDS011;54052;53.542;49.408;2023-02-28T09:35:57;4.05;;;1.33;;
67132;SDS011;54052;53.542;49.408;2023-02-28T09:38:26;3.10;;;1.70;;
67132;SDS011;54052;53.542;49.408;2023-02-28T09:40:57;2.00;;;1.23;;
67132;SDS011;54052;53.542;49.408;2023-02-28T09:43:27;2.55;;;1.30;;
67132;SDS011;54052;53.542;49.408;2023-02-28T09:48:38;1.67;;;1.27;;
67132;SDS011;54052;53.542;49.408;2023-02-28T09:54:15;2.13;;;1.60;;
67132;SDS011;54052;53.542;49.408;2023-02-28T09:56:48;2.33;;;1.33;;
67132;SDS011;54052;53.542;49.408;2023-02-28T10:02:31;1.45;;;1.10;;
67132;SDS011;54052;53.542;49.408;2023-02-28T10:05:17;6.25;;;1.40;;
67132;SDS011;54052;53.542;49.408;2023-02-28T10:12:57;2.83;;;1.27;;
67132;SDS011;54052;53.542;49.408;2023-02-28T10:15:26;3.08;;;1.40;;
67132;SDS011;54052;53.542;49.408;2023-02-28T10:18:03;2.75;;;1.30;;
67132;SDS011;54052;53.542;49.408;2023-02-28T10:20:33;1.73;;;1.00;;
67132;SDS011;54052;53.542;49.408;2023-02-28T10:23:11;2.50;;;1.52;;
67132;SDS011;54052;53.542;49.408;2023-02-28T10:25:58;1.92;;;1.15;;
67132;SDS011;54052;53.542;49.408;2023-02-28T10:28:26;1.35;;;1.10;;
67132;SDS011;54052;53.542;49.408;2023-02-28T10:30:55;2.10;;;1.30;;
67132;SDS011;54052;53.542;49.408;2023-02-28T10:33:43;2.83;;;1.80;;
67132;SDS011;54052;53.542;49.408;2023-02-28T10:36:14;4.68;;;1.95;;
67132;SDS011;54052;53.542;49.408;2023-02-28T10:38:43;2.47;;;1.55;;
67132;SDS011;54052;53.542;49.408;2023-02-28T10:43:38;4.13;;;2.35;;
67132;SDS011;54052;53.542;49.408;2023-02-28T10:48:38;11.30;;;2.72;;
67132;SDS011;54052;53.542;49.408;2023-02-28T10:51:15;8.07;;;6.13;;
67132;SDS011;54052;53.542;49.408;2023-02-28T10:56:18;3.55;;;2.47;;
67132;SDS011;54052;53.542;49.408;2023-02-28T10:58:57;2.45;;;2.25;;
67132;SDS011;54052;53.542;49.408;2023-02-28T11:01:34;7.25;;;2.70;;
67132;SDS011;54052;53.542;49.408;2023-02-28T11:04:00;3.03;;;2.72;;
67132;SDS011;54052;53.542;49.408;2023-02-28T11:06:29;3.60;;;2.97;;
67132;SDS011;54052;53.542;49.408;2023-02-28T11:08:58;4.10;;;2.17;;
67132;SDS011;54052;53.542;49.408;2023-02-28T11:11:46;5.03;;;2.25;;
67132;SDS011;54052;53.542;49.408;2023-02-28T11:14:17;3.35;;;2.97;;
67132;SDS011;54052;53.542;49.408;2023-02-28T11:16:52;7.43;;;3.17;;
67132;SDS011;54052;53.542;49.408;2023-02-28T11:19:22;4.40;;;3.22;;
67132;SDS011;54052;53.542;49.408;2023-02-28T11:21:58;2.90;;;2.53;;
67132;SDS011;54052;53.542;49.408;2023-02-28T11:24:34;3.38;;;3.08;;
67132;SDS011;54052;53.542;49.408;2023-02-28T11:27:03;5.43;;;4.53;;
67132;SDS011;54052;53.542;49.408;2023-02-28T11:29:30;3.17;;;2.65;;
67132;SDS011;54052;53.542;49.408;2023-02-28T11:34:31;7.63;;;5.32;;
67132;SDS011;54052;53.542;49.408;2023-02-28T11:36:59;4.22;;;2.97;;
67132;SDS011;54052;53.542;49.408;2023-02-28T11:39:26;3.20;;;1.60;;
67132;SDS011;54052;53.542;49.408;2023-02-28T11:50:39;15.23;;;4.68;;
67132;SDS011;54052;53.542;49.408;2023-02-28T11:53:35;4.47;;;2.78;;
67132;SDS011;54052;53.542;49.408;2023-02-28T12:01:22;5.78;;;2.28;;
67132;SDS011;54052;53.542;49.408;2023-02-28T12:04:22;3.08;;;1.98;;
67132;SDS011;54052;53.542;49.408;2023-02-28T12:07:35;5.82;;;2.60;;
67132;SDS011;54052;53.542;49.408;2023-02-28T12:26:55;3.55;;;2.25;;
67132;SDS011;54052;53.542;49.408;2023-02-28T12:32:26;5.22;;;1.95;;
67132;SDS011;54052;53.542;49.408;2023-02-28T12:35:02;3.33;;;2.45;;
67132;SDS011;54052;53.542;49.408;2023-02-28T12:37:41;3.55;;;1.63;;
67132;SDS011;54052;53.542;49.408;2023-02-28T12:40:21;2.67;;;1.85;;
67132;SDS011;54052;53.542;49.408;2023-02-28T12:42:50;7.55;;;1.73;;
67132;SDS011;54052;53.542;49.408;2023-02-28T12:45:22;2.85;;;1.70;;
67132;SDS011;54052;53.542;49.408;2023-02-28T12:47:57;3.70;;;1.60;;
67132;SDS011;54052;53.542;49.408;2023-02-28T12:50:32;3.30;;;1.70;;
67132;SDS011;54052;53.542;49.408;2023-02-28T12:53:18;3.97;;;1.80;;
67132;SDS011;54052;53.542;49.408;2023-02-28T12:58:53;6.95;;;2.03;;
67132;SDS011;54052;53.542;49.408;2023-02-28T13:04:44;3.35;;;3.05;;
67132;SDS011;54052;53.542;49.408;2023-02-28T13:10:04;7.03;;;2.63;;
67132;SDS011;54052;53.542;49.408;2023-02-28T13:12:33;2.88;;;2.58;;
67132;SDS011;54052;53.542;49.408;2023-02-28T13:15:22;5.65;;;2.83;;
67132;SDS011;54052;53.542;49.408;2023-02-28T13:17:58;4.35;;;2.75;;
67132;SDS011;54052;53.542;49.408;2023-02-28T13:20:29;4.68;;;2.60;;
67132;SDS011;54052;53.542;49.408;2023-02-28T13:23:01;3.72;;;2.72;;
67132;SDS011;54052;53.542;49.408;2023-02-28T13:28:03;3.53;;;3.20;;
67132;SDS011;54052;53.542;49.408;2023-02-28T13:33:30;2.53;;;2.33;;
67132;SDS011;54052;53.542;49.408;2023-02-28T13:36:10;3.08;;;2.53;;
67132;SDS011;54052;53.542;49.408;2023-02-28T13:38:49;4.28;;;3.25;;
67132;SDS011;54052;53.542;49.408;2023-02-28T13:52:02;5.80;;;2.53;;
67132;SDS011;54052;53.542;49.408;2023-02-28T14:05:16;4.10;;;2.50;;
67132;SDS011;54052;53.542;49.408;2023-02-28T14:07:53;2.80;;;2.60;;
67132;SDS011;54052;53.542;49.408;2023-02-28T14:10:33;2.85;;;2.38;;
67132;SDS011;54052;53.542;49.408;2023-02-28T14:16:10;4.07;;;2.92;;
67132;SDS011;54052;53.542;49.408;2023-02-28T14:19:31;2.67;;;2.30;;
67132;SDS011;54052;53.542;49.408;2023-02-28T14:22:33;3.65;;;2.83;;
67132;SDS011;54052;53.542;49.408;2023-02-28T14:36:17;3.08;;;2.78;;
67132;SDS011;54052;53.542;49.408;2023-02-28T14:38:48;3.30;;;3.00;;
67132;SDS011;54052;53.542;49.408;2023-02-28T14:41:37;3.15;;;2.83;;
67132;SDS011;54052;53.542;49.408;2023-02-28T14:44:19;3.05;;;2.72;;
67132;SDS011;54052;53.542;49.408;2023-02-28T14:46:48;4.53;;;3.70;;
67132;SDS011;54052;53.542;49.408;2023-02-28T14:51:44;3.08;;;2.83;;
67132;SDS011;54052;53.542;49.408;2023-02-28T14:54:15;3.30;;;2.53;;
67132;SDS011;54052;53.542;49.408;2023-02-28T14:56:49;2.47;;;2.28;;
67132;SDS011;54052;53.542;49.408;2023-02-28T14:59:23;3.50;;;2.67;;
67132;SDS011;54052;53.542;49.408;2023-02-28T15:01:50;6.72;;;2.72;;
67132;SDS011;54052;53.542;49.408;2023-02-28T15:04:21;2.45;;;2.25;;
67132;SDS011;54052;53.542;49.408;2023-02-28T15:07:12;3.22;;;2.92;;
67132;SDS011;54052;53.542;49.408;2023-02-28T15:09:42;3.40;;;3.05;;
67132;SDS011;54052;53.542;49.408;2023-02-28T15:12:09;3.42;;;3.13;;
67132;SDS011;54052;53.542;49.408;2023-02-28T15:14:42;3.17;;;2.70;;
67132;SDS011;54052;53.542;49.408;2023-02-28T15:17:21;3.58;;;2.70;;
67132;SDS011;54052;53.542;49.408;2023-02-28T15:20:00;3.35;;;2.67;;
67132;SDS011;54052;53.542;49.408;2023-02-28T15:22:28;2.80;;;2.60;;
67132;SDS011;54052;53.542;49.408;2023-02-28T15:25:00;6.57;;;5.45;;
67132;SDS011;54052;53.542;49.408;2023-02-28T15:27:32;3.45;;;2.47;;
67132;SDS011;54052;53.542;49.408;2023-02-28T15:30:00;3.85;;;3.08;;
67132;SDS011;54052;53.542;49.408;2023-02-28T15:32:33;2.83;;;2.63;;
67132;SDS011;54052;53.542;49.408;2023-02-28T15:45:44;2.80;;;2.53;;
67132;SDS011;54052;53.542;49.408;2023-02-28T15:48:19;3.92;;;3.50;;
67132;SDS011;54052;53.542;49.408;2023-02-28T15:50:54;3.15;;;2.85;;
67132;SDS011;54052;53.542;49.408;2023-02-28T15:53:35;3.45;;;2.45;;
67132;SDS011;54052;53.542;49.408;2023-02-28T15:56:25;2.72;;;2.42;;
67132;SDS011;54052;53.542;49.408;2023-02-28T15:58:54;2.92;;;2.63;;
67132;SDS011;54052;53.542;49.408;2023-02-28T16:01:25;2.47;;;2.28;;
67132;SDS011;54052;53.542;49.408;2023-02-28T16:03:57;3.17;;;2.42;;
67132;SDS011;54052;53.542;49.408;2023-02-28T16:09:14;4.00;;;2.45;;
67132;SDS011;54052;53.542;49.408;2023-02-28T16:11:42;2.08;;;1.85;;
67132;SDS011;54052;53.542;49.408;2023-02-28T16:14:31;3.22;;;2.92;;
67132;SDS011;54052;53.542;49.408;2023-02-28T16:17:07;4.95;;;4.45;;
67132;SDS011;54052;53.542;49.408;2023-02-28T16:19:42;3.15;;;2.85;;
67132;SDS011;54052;53.542;49.408;2023-02-28T16:22:08;2.60;;;2.35;;
67132;SDS011;54052;53.542;49.408;2023-02-28T16:24:36;3.38;;;2.35;;
67132;SDS011;54052;53.542;49.408;2023-02-28T16:27:03;2.88;;;2.28;;
67132;SDS011;54052;53.542;49.408;2023-02-28T16:29:31;2.80;;;2.30;;
67132;SDS011;54052;53.542;49.408;2023-02-28T16:32:01;3.42;;;2.38;;
67132;SDS011;54052;53.542;49.408;2023-02-28T16:34:30;3.33;;;3.03;;
67132;SDS011;54052;53.542;49.408;2023-02-28T16:36:56;4.03;;;2.78;;
67132;SDS011;54052;53.542;49.408;2023-02-28T16:39:23;2.33;;;2.13;;
67132;SDS011;54052;53.542;49.408;2023-02-28T16:41:50;3.22;;;2.92;;
67132;SDS011;54052;53.542;49.408;2023-02-28T16:44:37;2.95;;;2.50;;
67132;SDS011;54052;53.542;49.408;2023-02-28T16:47:05;2.95;;;2.65;;
67132;SDS011;54052;53.542;49.408;2023-02-28T16:49:31;3.38;;;2.90;;
67132;SDS011;54052;53.542;49.408;2023-02-28T16:51:57;3.55;;;3.25;;
67132;SDS011;54052;53.542;49.408;2023-02-28T16:54:23;3.30;;;2.88;;
67132;SDS011;54052;53.542;49.408;2023-02-28T16:56:49;3.50;;;2.85;;
67132;SDS011;54052;53.542;49.408;2023-02-28T16:59:18;3.40;;;3.00;;
67132;SDS011;54052;53.542;49.408;2023-02-28T17:01:48;3.13;;;2.83;;
67132;SDS011;54052;53.542;49.408;2023-02-28T17:04:15;3.30;;;2.58;;
67132;SDS011;54052;53.542;49.408;2023-02-28T17:06:41;3.33;;;3.00;;
67132;SDS011;54052;53.542;49.408;2023-02-28T17:09:09;3.45;;;2.55;;
67132;SDS011;54052;53.542;49.408;2023-02-28T17:11:43;3.00;;;2.70;;
67132;SDS011;54052;53.542;49.408;2023-02-28T17:14:10;3.00;;;2.60;;
67132;SDS011;54052;53.542;49.408;2023-02-28T17:16:37;3.50;;;3.20;;
67132;SDS011;54052;53.542;49.408;2023-02-28T17:19:12;4.50;;;2.67;;
67132;SDS011;54052;53.542;49.408;2023-02-28T17:21:40;3.25;;;2.95;;
67132;SDS011;54052;53.542;49.408;2023-02-28T17:24:07;6.20;;;3.00;;
67132;SDS011;54052;53.542;49.408;2023-02-28T17:26:34;5.50;;;2.90;;
67132;SDS011;54052;53.542;49.408;2023-02-28T17:29:00;3.58;;;3.20;;
67132;SDS011;54052;53.542;49.408;2023-02-28T17:31:27;3.85;;;3.30;;
67132;SDS011;54052;53.542;49.408;2023-02-28T17:33:53;2.47;;;2.28;;
67132;SDS011;54052;53.542;49.408;2023-02-28T17:36:26;3.55;;;3.22;;